Katmai National Park, AK

5:33 AM AKDT on October 23, 2014 (GMT -0800)
King Salmon | Change Station
CLOSE
Current Station
Airport
Location: King Salmon,
Elevation: 46 ft
Nearby Weather Stations

Elev 46 ft 58.68 °N, 156.66 °W | Updated 39 minutes ago

Clear
Clear
24 °F
Feels Like 24 °F
N
0
Wind Variable Wind from North

Today
High -- | Low -- °F
--% Chance of Precip.
Yesterday
High -- | Low -- °F
Precip. -- in
9:22 AM 6:58 PM
Waning Crescent, 0% visible
Pressure 29.86 in
Visibility 10.0 miles
Clouds Clear
Dew Point 21 °F
Humidity 88%
Rainfall 0.00 in
Snow Depth Not available.
UV 0 out of 12
Pollen Not available.
Air Quality Not available.
Flu Activity Sporadic
METAR PAKN 231254Z 00000KT 10SM CLR M04/M06 A2985 RMK AO2 SLP110 T10441061

More Conditions Fewer Conditions

Pressure 29.86 in
Visibility 10.0 miles
Clouds Clear
Dew Point 21 °F
Humidity 88%
Rainfall 0.00 in
Snow Depth Not available.
UV 0 out of 12
Pollen Not available.
Air Quality Not available.
Flu Activity Sporadic
METAR PAKN 231254Z 00000KT 10SM CLR M04/M06 A2985 RMK AO2 SLP110 T10441061

More Conditions Fewer Conditions

10-Day Weather Forecast

Almanac

Astronomy

Oct. 23, 2014 Rise Set
Actual Time 9:22 AM AKDT 6:58 PM AKDT
Civil Twilight 8:40 AM AKDT 7:39 PM AKDT
Nautical Twilight 7:54 AM AKDT 8:26 PM AKDT
Astronomical Twilight 7:07 AM AKDT 9:12 PM AKDT
Moon 9:11 AM AKDT 7:04 PM AKDT
Length of Visible Light 10h 58m
Length of Day
9h 35m
Tomorrow will be 5m 0s shorter.
Waning Crescent, 0% of the Moon is Illuminated
Today
Waning Crescent
Oct 23
New
Oct 30
First Quarter
Nov 6
Full
Nov 14
Last Quarter

Today's Extremes

State Highs State Lows

Community

WunderPhotos

Upload Photos

1,764,238 photos uploaded!

Nearby

Snow Depth

Station Depth Elevation
Port Graham 0 in 300 ft
Mcneil Canyon 1 in 1320 ft
MF Bradley River 0 in 2300 ft
Cooper Lake 1 in 1200 ft
Grouse Creek Divide 1 in 700 ft

Earthquake Activity

City Distance Mag. Time & Date
No recent earthquake activity has been reported nearby.
Minimum magnitude displayed is 2.5.

Coastal Water Temperatures

Place Temperature
No Stations Reporting

Nearby Weather Stations